Time;durP1;ratioP1;P1;durP2;ratioP2;P2;SDS_P1;SDS_P2;PMS_P1;PMS_P2;Temp;Humidity;BMP_temperature;BMP_pressure;BME280_temperature;BME280_humidity;BME280_pressure;Samples;Min_cycle;Max_cycle;Signal;HPM_P1;HPM_P2
2021/11/05 00:00:52;;;;;;;2.00;1.80;;;7.60;99.90;;;;;;5033039;28;20637;-64
2021/11/05 00:03:18;;;;;;;1.60;1.50;;;7.60;99.90;;;;;;5032933;28;20259;-64
2021/11/05 00:05:44;;;;;;;2.40;2.20;;;7.60;99.90;;;;;;5033225;28;20181;-64
2021/11/05 00:08:10;;;;;;;1.53;1.53;;;7.50;99.90;;;;;;5014703;28;20200;-65
2021/11/05 00:10:40;;;;;;;1.65;1.55;;;7.50;99.90;;;;;;5033017;28;20611;-65
2021/11/05 00:13:07;;;;;;;2.15;1.70;;;7.50;99.90;;;;;;5033149;28;20177;-65
2021/11/05 00:15:32;;;;;;;2.80;2.00;;;7.50;99.90;;;;;;5032816;28;20194;-64
2021/11/05 00:17:58;;;;;;;2.00;1.80;;;7.50;99.90;;;;;;5032412;28;20693;-65
2021/11/05 00:20:25;;;;;;;1.97;1.97;;;7.50;99.90;;;;;;5036628;28;20649;-65
2021/11/05 00:22:51;;;;;;;3.28;2.45;;;7.50;99.90;;;;;;5036725;28;20400;-64
2021/11/05 00:25:17;;;;;;;6.43;2.00;;;7.50;99.90;;;;;;5036708;28;20180;-64
2021/11/05 00:27:43;;;;;;;2.30;2.20;;;7.50;99.90;;;;;;5036403;28;20950;-65
2021/11/05 00:30:11;;;;;;;2.43;2.00;;;7.50;99.90;;;;;;5036695;28;20965;-65
2021/11/05 00:32:37;;;;;;;1.90;1.80;;;7.50;99.90;;;;;;5036571;28;20674;-65
2021/11/05 00:35:03;;;;;;;2.15;2.05;;;7.50;99.90;;;;;;5036635;28;20533;-64
2021/11/05 00:37:29;;;;;;;2.10;1.98;;;7.50;99.90;;;;;;5036288;28;20204;-64
2021/11/05 00:39:55;;;;;;;2.03;1.87;;;7.50;99.90;;;;;;5036634;28;20170;-64
2021/11/05 00:42:20;;;;;;;2.13;1.93;;;7.50;99.90;;;;;;5036664;28;20188;-64
2021/11/05 00:44:46;;;;;;;1.80;1.70;;;7.40;99.90;;;;;;5036556;28;20238;-65
2021/11/05 00:47:12;;;;;;;3.13;1.60;;;7.40;99.90;;;;;;5036058;28;20174;-64
2021/11/05 00:49:38;;;;;;;2.03;1.92;;;7.40;99.90;;;;;;5036610;28;20189;-64
2021/11/05 00:52:04;;;;;;;1.70;1.60;;;7.40;99.90;;;;;;5036447;28;20629;-65
2021/11/05 00:54:30;;;;;;;2.20;2.00;;;7.40;99.90;;;;;;5036256;28;20169;-64
2021/11/05 00:56:55;;;;;;;1.52;1.40;;;7.30;99.90;;;;;;5035990;28;20249;-64
2021/11/05 00:59:21;;;;;;;1.90;1.80;;;7.30;99.90;;;;;;5036399;28;20385;-65
2021/11/05 01:01:47;;;;;;;2.67;2.30;;;7.30;99.90;;;;;;5036448;28;20552;-65
2021/11/05 01:04:13;;;;;;;2.00;1.80;;;7.30;99.90;;;;;;5036616;28;20186;-64
2021/11/05 01:06:39;;;;;;;2.50;2.30;;;7.20;99.90;;;;;;5037099;28;20169;-65
2021/11/05 01:09:05;;;;;;;2.13;2.03;;;7.20;99.90;;;;;;5036483;28;20203;-65
2021/11/05 01:11:31;;;;;;;2.78;2.58;;;7.20;99.90;;;;;;5036337;28;20177;-65
2021/11/05 01:13:56;;;;;;;1.75;1.65;;;7.20;99.90;;;;;;5040340;28;20178;-64
2021/11/05 01:16:22;;;;;;;3.67;1.93;;;7.20;99.90;;;;;;5037628;28;20247;-65
2021/11/05 01:18:49;;;;;;;2.33;2.13;;;7.30;99.90;;;;;;5041166;28;20253;-64
2021/11/05 01:21:16;;;;;;;2.70;2.50;;;7.20;99.90;;;;;;5038235;28;20673;-64
2021/11/05 01:23:41;;;;;;;2.75;2.55;;;7.20;99.90;;;;;;5036716;28;20404;-64
2021/11/05 01:26:07;;;;;;;2.10;2.00;;;7.20;99.90;;;;;;5035428;28;20230;-64
2021/11/05 01:28:33;;;;;;;2.20;2.10;;;7.20;99.90;;;;;;5035005;28;20308;-65
2021/11/05 01:30:58;;;;;;;6.40;2.67;;;7.10;99.90;;;;;;5033470;28;20189;-65
2021/11/05 01:33:24;;;;;;;3.90;2.33;;;7.20;99.90;;;;;;5035955;28;20188;-65
2021/11/05 01:35:51;;;;;;;3.20;2.90;;;7.10;99.90;;;;;;5035653;28;20181;-64
2021/11/05 01:38:17;;;;;;;3.30;2.50;;;7.10;99.90;;;;;;5034931;28;20460;-64
2021/11/05 01:40:44;;;;;;;2.30;2.20;;;7.10;99.90;;;;;;5034313;28;20644;-65
2021/11/05 01:43:10;;;;;;;2.92;2.70;;;7.10;99.90;;;;;;5035432;28;20177;-65
2021/11/05 01:45:37;;;;;;;2.63;2.42;;;7.10;99.90;;;;;;5035046;28;20170;-64
2021/11/05 01:48:03;;;;;;;2.70;2.45;;;7.10;99.90;;;;;;5034863;28;20549;-65
2021/11/05 01:50:29;;;;;;;1.80;1.70;;;7.10;99.90;;;;;;5035265;28;20184;-65
2021/11/05 01:52:56;;;;;;;2.65;2.45;;;7.10;99.90;;;;;;5035197;28;20835;-64
2021/11/05 01:55:22;;;;;;;2.28;2.15;;;7.10;99.90;;;;;;5035091;28;20180;-65
2021/11/05 01:57:48;;;;;;;3.70;3.40;;;7.10;99.90;;;;;;5034489;28;20668;-65
2021/11/05 02:00:17;;;;;;;2.30;2.17;;;7.10;99.90;;;;;;5035148;28;20162;-65
2021/11/05 02:02:44;;;;;;;1.75;1.65;;;7.10;99.90;;;;;;5034952;28;20160;-65
2021/11/05 02:05:11;;;;;;;2.20;1.98;;;7.00;99.90;;;;;;5034938;28;20166;-65
2021/11/05 02:07:38;;;;;;;2.40;2.20;;;7.00;99.90;;;;;;5034416;28;20197;-65
2021/11/05 02:10:07;;;;;;;2.67;2.53;;;7.00;99.90;;;;;;5034891;28;20220;-65
2021/11/05 02:12:34;;;;;;;1.95;1.85;;;7.00;99.90;;;;;;5034935;28;20235;-66
2021/11/05 02:15:01;;;;;;;3.35;2.25;;;7.00;99.90;;;;;;5034676;28;20192;-65
2021/11/05 02:17:27;;;;;;;3.20;2.90;;;7.00;99.90;;;;;;5034173;28;20287;-65
2021/11/05 02:19:53;;;;;;;2.57;2.37;;;6.90;99.90;;;;;;5034673;28;20261;-64
2021/11/05 02:22:19;;;;;;;2.33;2.15;;;7.00;99.90;;;;;;5034786;28;20827;-65
2021/11/05 02:24:45;;;;;;;2.42;2.22;;;7.00;99.90;;;;;;5034582;28;20264;-66
2021/11/05 02:27:10;;;;;;;2.30;2.20;;;7.00;99.90;;;;;;5034062;28;20262;-65
2021/11/05 02:29:36;;;;;;;2.50;2.30;;;6.90;99.90;;;;;;5034367;28;20176;-65
2021/11/05 02:32:04;;;;;;;3.03;2.40;;;6.90;99.90;;;;;;5034433;28;20176;-65
2021/11/05 02:34:31;;;;;;;2.95;2.38;;;6.90;99.90;;;;;;5034599;28;20411;-65
2021/11/05 02:36:58;;;;;;;2.55;2.30;;;6.90;99.90;;;;;;5034284;28;20192;-64
2021/11/05 02:39:24;;;;;;;2.60;2.50;;;6.90;99.90;;;;;;5034165;28;20212;-64
2021/11/05 02:41:53;;;;;;;2.38;2.15;;;6.90;99.90;;;;;;5034081;28;20619;-65
2021/11/05 02:44:20;;;;;;;2.72;2.53;;;6.90;99.90;;;;;;5034515;28;20168;-66
2021/11/05 02:46:46;;;;;;;2.20;2.10;;;6.90;99.90;;;;;;5033679;28;20162;-65
2021/11/05 02:49:16;;;;;;;2.88;2.67;;;7.00;99.90;;;;;;5034220;28;20562;-64
2021/11/05 02:51:47;;;;;;;2.92;2.60;;;7.00;99.90;;;;;;5034109;28;20178;-66
2021/11/05 02:54:13;;;;;;;2.20;2.03;;;7.00;99.90;;;;;;5034022;28;20174;-64
2021/11/05 02:56:39;;;;;;;2.37;2.17;;;7.00;99.90;;;;;;5033583;28;20162;-64
2021/11/05 02:59:06;;;;;;;2.22;2.03;;;7.00;99.90;;;;;;5033619;28;20437;-64
2021/11/05 03:01:33;;;;;;;1.50;1.40;;;6.90;99.90;;;;;;5033971;28;20593;-66
2021/11/05 03:04:07;;;;;;;2.42;2.22;;;6.90;99.90;;;;;;5033861;28;20169;-65
2021/11/05 03:06:39;;;;;;;3.50;2.78;;;6.90;99.90;;;;;;5033449;28;20172;-66
2021/11/05 03:09:12;;;;;;;2.40;2.15;;;6.90;99.90;;;;;;5033536;28;20189;-64
2021/11/05 03:11:38;;;;;;;2.17;1.83;;;6.90;99.90;;;;;;5033765;28;20199;-65
2021/11/05 03:14:05;;;;;;;2.97;2.42;;;6.90;99.90;;;;;;5033639;28;20223;-64
2021/11/05 03:16:31;;;;;;;1.90;1.60;;;6.80;99.90;;;;;;5033328;28;20619;-64
2021/11/05 03:18:57;;;;;;;2.90;2.35;;;6.90;99.90;;;;;;5033288;28;20212;-64
2021/11/05 03:21:23;;;;;;;2.63;2.43;;;6.90;99.90;;;;;;5033383;28;20173;-64
2021/11/05 03:23:49;;;;;;;2.50;2.40;;;6.90;99.90;;;;;;5033477;28;20185;-65
2021/11/05 03:26:14;;;;;;;2.37;2.20;;;6.90;99.90;;;;;;5033533;28;20935;-66
2021/11/05 03:28:40;;;;;;;2.40;2.20;;;6.90;99.90;;;;;;5033398;28;20189;-66
2021/11/05 03:31:06;;;;;;;2.60;2.40;;;6.90;99.90;;;;;;5016058;28;20223;-65
2021/11/05 03:33:31;;;;;;;2.90;2.57;;;6.90;99.90;;;;;;5033525;28;20169;-64
2021/11/05 03:35:57;;;;;;;2.90;2.00;;;6.90;99.90;;;;;;5033508;28;20212;-65
2021/11/05 03:38:23;;;;;;;2.67;2.47;;;6.90;99.90;;;;;;5033018;28;20212;-64
2021/11/05 03:40:49;;;;;;;2.60;2.40;;;6.90;99.90;;;;;;5033340;28;20168;-66
2021/11/05 03:43:15;;;;;;;2.77;2.57;;;6.90;99.90;;;;;;5033355;28;20166;-65
2021/11/05 03:45:41;;;;;;;2.60;2.30;;;6.90;99.90;;;;;;5033482;28;20480;-65
2021/11/05 03:48:07;;;;;;;2.60;2.40;;;6.90;99.90;;;;;;5032667;28;20251;-65
2021/11/05 03:50:33;;;;;;;6.22;2.63;;;6.90;99.90;;;;;;5033219;28;20181;-65
2021/11/05 03:52:59;;;;;;;3.30;3.00;;;6.90;99.90;;;;;;5032599;28;20199;-65
2021/11/05 03:55:24;;;;;;;3.10;2.43;;;6.90;99.90;;;;;;5033135;28;20314;-65
2021/11/05 03:57:50;;;;;;;2.60;2.50;;;6.90;99.90;;;;;;5032640;28;20296;-64
2021/11/05 04:00:16;;;;;;;2.13;1.93;;;6.90;99.90;;;;;;5033115;28;20168;-64
2021/11/05 04:02:42;;;;;;;2.83;2.63;;;6.90;99.90;;;;;;5031692;28;20181;-64
2021/11/05 04:05:08;;;;;;;2.60;2.40;;;6.90;99.90;;;;;;5032887;28;20397;-64
2021/11/05 04:07:34;;;;;;;2.70;2.50;;;7.00;99.90;;;;;;5032819;28;20192;-65
2021/11/05 04:09:59;;;;;;;2.00;1.90;;;6.90;99.90;;;;;;5033085;28;20281;-65
2021/11/05 04:12:27;;;;;;;1.63;1.53;;;6.90;99.90;;;;;;5032985;28;20514;-64
2021/11/05 04:14:53;;;;;;;3.20;3.00;;;6.90;99.90;;;;;;5031592;28;20616;-65
2021/11/05 04:17:18;;;;;;;2.20;1.77;;;6.90;99.90;;;;;;5032497;28;20259;-65
2021/11/05 04:19:44;;;;;;;2.40;2.20;;;6.90;99.90;;;;;;5032976;28;20416;-65
2021/11/05 04:22:09;;;;;;;1.87;1.77;;;6.90;99.90;;;;;;5032993;28;20535;-65
2021/11/05 04:24:35;;;;;;;2.00;1.83;;;7.00;99.90;;;;;;5032924;28;20179;-65
2021/11/05 04:27:01;;;;;;;1.93;1.83;;;7.00;99.90;;;;;;5032608;28;20216;-66
2021/11/05 04:29:27;;;;;;;2.78;2.45;;;7.00;99.90;;;;;;5032688;28;20204;-65
2021/11/05 04:31:53;;;;;;;2.30;2.13;;;7.00;99.90;;;;;;5032822;28;20169;-65
2021/11/05 04:34:18;;;;;;;3.13;2.93;;;7.00;99.90;;;;;;5032941;28;20634;-65
2021/11/05 04:36:45;;;;;;;4.20;2.10;;;7.00;99.90;;;;;;5032313;28;20180;-63
2021/11/05 04:39:16;;;;;;;2.25;2.10;;;7.10;99.90;;;;;;5032840;28;20626;-65
2021/11/05 04:41:42;;;;;;;2.30;2.20;;;7.00;99.90;;;;;;5032843;28;20165;-64
2021/11/05 04:44:07;;;;;;;2.77;2.57;;;7.00;99.90;;;;;;5032730;28;20170;-65
2021/11/05 04:46:33;;;;;;;2.13;1.93;;;7.10;99.90;;;;;;5032355;28;20165;-65
2021/11/05 04:48:58;;;;;;;2.53;2.40;;;7.00;99.90;;;;;;5032515;28;20193;-65
2021/11/05 04:51:25;;;;;;;1.80;1.70;;;7.10;99.90;;;;;;5032546;28;20265;-64
2021/11/05 04:53:51;;;;;;;3.50;2.75;;;7.10;99.90;;;;;;5032638;28;20641;-64
2021/11/05 04:56:16;;;;;;;3.40;2.20;;;7.10;99.90;;;;;;5032341;28;20268;-65
2021/11/05 04:58:42;;;;;;;1.87;1.70;;;7.10;99.90;;;;;;5032355;28;20577;-65
2021/11/05 05:01:08;;;;;;;2.40;2.20;;;7.10;99.90;;;;;;5032543;28;20627;-65
2021/11/05 05:03:33;;;;;;;3.43;2.43;;;7.10;99.90;;;;;;5032642;28;20544;-64
2021/11/05 05:05:59;;;;;;;2.30;2.10;;;7.10;99.90;;;;;;5034089;28;20416;-66
2021/11/05 05:08:25;;;;;;;3.53;2.67;;;7.10;99.90;;;;;;5035750;28;20208;-65
2021/11/05 05:10:51;;;;;;;2.43;2.30;;;7.10;99.90;;;;;;5018304;28;20200;-65
2021/11/05 05:13:17;;;;;;;1.98;1.83;;;7.10;99.90;;;;;;5035951;28;20182;-66
2021/11/05 05:15:43;;;;;;;2.90;2.60;;;7.10;99.90;;;;;;5035731;28;20276;-65
2021/11/05 05:18:09;;;;;;;2.43;2.30;;;7.10;99.90;;;;;;5035568;28;20727;-66
2021/11/05 05:20:35;;;;;;;2.33;2.20;;;7.10;99.90;;;;;;5035769;28;20307;-65
2021/11/05 05:23:01;;;;;;;1.77;1.67;;;7.10;99.90;;;;;;5035693;28;20228;-65
2021/11/05 05:25:27;;;;;;;2.07;1.97;;;7.10;99.90;;;;;;5036067;28;20179;-65
2021/11/05 05:27:52;;;;;;;2.67;2.43;;;7.10;99.90;;;;;;5035206;28;20431;-65
2021/11/05 05:30:19;;;;;;;2.70;2.30;;;7.10;99.90;;;;;;5035381;28;20684;-65
2021/11/05 05:32:46;;;;;;;2.58;2.38;;;7.10;99.90;;;;;;5035076;28;20674;-66
2021/11/05 05:35:14;;;;;;;3.92;2.53;;;7.10;99.90;;;;;;5035340;28;20238;-65
2021/11/05 05:37:39;;;;;;;2.83;2.63;;;7.10;99.90;;;;;;5034798;28;20200;-66
2021/11/05 05:40:06;;;;;;;2.70;2.50;;;7.20;99.90;;;;;;5035327;28;20227;-64
2021/11/05 05:42:32;;;;;;;1.92;1.83;;;7.20;99.90;;;;;;5035382;28;20407;-65
2021/11/05 05:44:58;;;;;;;2.40;2.23;;;7.20;99.90;;;;;;5035397;28;20195;-65
2021/11/05 05:47:23;;;;;;;1.80;1.70;;;7.20;99.90;;;;;;5034988;28;20167;-65
2021/11/05 05:49:51;;;;;;;2.50;2.30;;;7.20;99.90;;;;;;5035084;28;20169;-66
2021/11/05 05:52:17;;;;;;;2.95;2.67;;;7.20;99.90;;;;;;5017686;28;20638;-65
2021/11/05 05:54:42;;;;;;;2.10;1.80;;;7.20;99.90;;;;;;5034904;28;20171;-65
2021/11/05 05:57:09;;;;;;;2.43;2.23;;;7.20;99.90;;;;;;5034775;28;20168;-65
2021/11/05 05:59:35;;;;;;;2.67;2.47;;;7.20;99.90;;;;;;5034842;28;20211;-66
2021/11/05 06:02:01;;;;;;;1.90;1.80;;;7.10;99.90;;;;;;5034887;28;20192;-66
2021/11/05 06:04:26;;;;;;;2.40;2.30;;;7.10;99.90;;;;;;5035098;28;20178;-66
2021/11/05 06:06:55;;;;;;;2.47;2.37;;;7.10;99.90;;;;;;5034698;28;20181;-66
2021/11/05 06:09:21;;;;;;;4.13;2.17;;;7.20;99.90;;;;;;5034910;28;20197;-65
2021/11/05 06:11:46;;;;;;;1.80;1.70;;;7.20;99.90;;;;;;5034919;28;20181;-65
2021/11/05 06:14:13;;;;;;;2.13;2.03;;;7.20;99.90;;;;;;5035346;28;20256;-65
2021/11/05 06:16:40;;;;;;;1.50;1.40;;;7.30;99.90;;;;;;5033864;28;20185;-66
2021/11/05 06:19:06;;;;;;;2.88;2.67;;;7.20;99.90;;;;;;5034591;28;20219;-65
2021/11/05 06:21:32;;;;;;;1.90;1.77;;;7.30;99.90;;;;;;5034614;28;20220;-65
2021/11/05 06:23:57;;;;;;;2.07;1.90;;;7.30;99.90;;;;;;5034626;28;20162;-65
2021/11/05 06:26:23;;;;;;;2.30;1.50;;;7.30;99.90;;;;;;5034113;28;20386;-65
2021/11/05 06:28:49;;;;;;;2.83;2.30;;;7.30;99.90;;;;;;5034454;28;20296;-65
2021/11/05 06:31:14;;;;;;;2.47;2.27;;;7.40;99.90;;;;;;5034544;28;20231;-65
2021/11/05 06:33:40;;;;;;;2.30;2.00;;;7.40;99.90;;;;;;5034364;28;20688;-65
2021/11/05 06:36:06;;;;;;;2.00;1.90;;;7.40;99.90;;;;;;5034269;28;20169;-65
2021/11/05 06:38:32;;;;;;;2.03;1.93;;;7.40;99.90;;;;;;5033958;28;20198;-65
2021/11/05 06:40:58;;;;;;;2.75;2.55;;;7.40;99.90;;;;;;5034208;28;20181;-65
2021/11/05 06:43:24;;;;;;;1.60;1.50;;;7.40;99.90;;;;;;5034112;28;20529;-66
2021/11/05 06:45:50;;;;;;;1.57;1.40;;;7.40;99.90;;;;;;5033999;28;20170;-68
2021/11/05 06:48:16;;;;;;;2.60;1.70;;;7.40;99.90;;;;;;5016336;28;20209;-65
2021/11/05 06:50:42;;;;;;;2.40;2.30;;;7.50;99.90;;;;;;5034088;28;20787;-65
2021/11/05 06:53:12;;;;;;;2.70;2.40;;;7.50;99.90;;;;;;5033941;28;20413;-65
2021/11/05 06:55:37;;;;;;;2.17;2.00;;;7.50;99.90;;;;;;5034063;28;20176;-65
2021/11/05 06:58:05;;;;;;;2.60;2.40;;;7.60;99.90;;;;;;5033462;28;20608;-65
2021/11/05 07:00:31;;;;;;;2.50;2.30;;;7.50;99.90;;;;;;5033910;28;20400;-65
2021/11/05 07:02:59;;;;;;;2.50;2.30;;;7.50;99.90;;;;;;5033932;28;20181;-65
2021/11/05 07:05:25;;;;;;;2.63;2.33;;;7.60;99.90;;;;;;5034025;28;20166;-67
2021/11/05 07:07:50;;;;;;;2.70;2.50;;;7.60;99.90;;;;;;5033343;28;20208;-65
2021/11/05 07:10:17;;;;;;;4.03;2.50;;;7.60;99.90;;;;;;5033703;28;20759;-65
2021/11/05 07:12:43;;;;;;;4.13;3.72;;;7.70;99.90;;;;;;5033579;28;20170;-66
2021/11/05 07:15:10;;;;;;;2.67;2.47;;;7.70;99.90;;;;;;5033358;28;20261;-65
2021/11/05 07:17:37;;;;;;;2.65;2.45;;;7.70;99.90;;;;;;5032759;28;20448;-65
2021/11/05 07:20:04;;;;;;;3.92;2.90;;;7.70;99.90;;;;;;5033565;28;20180;-65
2021/11/05 07:22:30;;;;;;;2.38;2.20;;;7.80;99.90;;;;;;5033608;28;20173;-65
2021/11/05 07:24:56;;;;;;;5.00;2.23;;;7.80;99.90;;;;;;5033397;28;20174;-65
2021/11/05 07:27:22;;;;;;;2.70;2.60;;;7.90;99.90;;;;;;5033094;28;20189;-66
2021/11/05 07:29:48;;;;;;;3.23;2.97;;;7.90;99.90;;;;;;5032826;28;20637;-65
2021/11/05 07:32:14;;;;;;;2.80;2.42;;;7.90;99.90;;;;;;5033202;28;20170;-65
2021/11/05 07:34:40;;;;;;;2.73;2.60;;;7.90;99.90;;;;;;5033447;28;20172;-65
2021/11/05 07:37:11;;;;;;;2.08;1.90;;;7.90;99.90;;;;;;5033145;28;20379;-65
2021/11/05 07:39:37;;;;;;;3.28;1.95;;;7.90;99.90;;;;;;5033316;28;20237;-64
2021/11/05 07:42:03;;;;;;;4.65;3.35;;;7.90;99.90;;;;;;5015445;28;20181;-65
2021/11/05 07:44:28;;;;;;;3.77;3.57;;;7.90;99.90;;;;;;5033274;28;20526;-65
2021/11/05 07:46:54;;;;;;;2.97;2.77;;;7.90;99.90;;;;;;5032771;28;20184;-66
2021/11/05 07:49:19;;;;;;;2.73;2.23;;;8.00;99.90;;;;;;5033137;28;20201;-66
2021/11/05 07:51:46;;;;;;;2.23;2.00;;;8.00;99.90;;;;;;5033280;28;20181;-66
2021/11/05 07:54:12;;;;;;;3.42;3.13;;;8.10;99.90;;;;;;5033289;28;20256;-65
2021/11/05 07:56:38;;;;;;;2.60;2.42;;;8.00;99.90;;;;;;5032625;28;20177;-65
2021/11/05 07:59:06;;;;;;;2.97;2.63;;;8.10;99.90;;;;;;5032737;28;20297;-66
2021/11/05 08:01:32;;;;;;;6.45;5.72;;;8.10;99.90;;;;;;5032960;28;20174;-65
2021/11/05 08:03:58;;;;;;;6.72;4.35;;;8.10;99.90;;;;;;5033104;28;20581;-65
2021/11/05 08:06:24;;;;;;;3.40;3.10;;;8.10;99.90;;;;;;4998638;28;20166;-66
2021/11/05 08:08:49;;;;;;;2.37;2.13;;;8.20;99.90;;;;;;5032683;28;20181;-66
2021/11/05 08:11:16;;;;;;;2.00;1.73;;;8.20;99.90;;;;;;5032888;28;20433;-66
2021/11/05 08:13:42;;;;;;;1.98;1.85;;;8.20;99.90;;;;;;5032904;28;20173;-65
2021/11/05 08:16:09;;;;;;;2.30;2.10;;;8.30;99.90;;;;;;5032677;28;20185;-65
2021/11/05 08:18:35;;;;;;;2.10;1.70;;;8.30;99.90;;;;;;5032237;28;20206;-65
2021/11/05 08:21:00;;;;;;;2.60;2.37;;;8.30;99.90;;;;;;5032943;28;20173;-65
2021/11/05 08:23:27;;;;;;;4.10;2.43;;;8.40;99.90;;;;;;5032616;28;20387;-65
2021/11/05 08:25:52;;;;;;;2.97;2.70;;;8.50;99.90;;;;;;5032836;28;20420;-65
2021/11/05 08:28:20;;;;;;;2.23;2.00;;;8.60;99.90;;;;;;5032390;28;20190;-65
2021/11/05 08:30:47;;;;;;;3.58;3.28;;;8.70;99.90;;;;;;5031488;28;20432;-65
2021/11/05 08:33:14;;;;;;;3.35;2.85;;;8.80;99.90;;;;;;5032621;28;20544;-65
2021/11/05 08:35:41;;;;;;;3.65;2.38;;;8.80;99.90;;;;;;5032658;28;20170;-65
2021/11/05 08:38:14;;;;;;;3.40;2.25;;;8.80;99.90;;;;;;5032064;28;20554;-65
2021/11/05 08:40:43;;;;;;;3.15;2.95;;;8.90;99.90;;;;;;5033970;28;20174;-65
2021/11/05 08:43:10;;;;;;;2.33;2.22;;;8.90;99.90;;;;;;5036308;28;20581;-66
2021/11/05 08:45:35;;;;;;;2.40;2.30;;;8.90;99.90;;;;;;5036462;28;20169;-65
2021/11/05 08:48:03;;;;;;;3.13;2.93;;;8.90;99.90;;;;;;5034558;28;20189;-66
2021/11/05 08:50:29;;;;;;;2.88;2.53;;;8.90;99.90;;;;;;5036096;28;20181;-64
2021/11/05 08:52:56;;;;;;;3.20;2.88;;;8.90;99.90;;;;;;5034725;28;20179;-65
2021/11/05 08:55:21;;;;;;;2.70;2.03;;;8.90;99.90;;;;;;5036179;28;20181;-65
2021/11/05 08:57:47;;;;;;;3.03;2.63;;;9.00;99.90;;;;;;5035839;28;20697;-65
2021/11/05 09:00:21;;;;;;;3.03;2.20;;;9.00;99.90;;;;;;5036316;28;20166;-65
2021/11/05 09:02:47;;;;;;;3.30;2.45;;;8.90;99.90;;;;;;5036163;28;20453;-66
2021/11/05 09:05:13;;;;;;;2.53;2.33;;;8.90;99.90;;;;;;5035962;28;20613;-65
2021/11/05 09:07:39;;;;;;;2.67;2.47;;;8.90;99.90;;;;;;5035841;28;20776;-66
2021/11/05 09:10:06;;;;;;;2.80;2.60;;;8.90;99.90;;;;;;5036019;28;20174;-66
2021/11/05 09:12:32;;;;;;;2.20;2.10;;;8.90;99.90;;;;;;5035827;28;20577;-66
2021/11/05 09:14:59;;;;;;;2.40;2.20;;;8.80;99.90;;;;;;5035816;28;20197;-65
2021/11/05 09:17:25;;;;;;;2.45;2.25;;;8.80;99.90;;;;;;5035343;28;20249;-65
2021/11/05 09:19:50;;;;;;;2.25;2.05;;;8.90;99.90;;;;;;5035523;28;20228;-65
2021/11/05 09:22:18;;;;;;;1.87;1.77;;;8.90;99.90;;;;;;5035569;28;20171;-65
2021/11/05 09:24:43;;;;;;;1.77;1.67;;;9.00;99.90;;;;;;5035679;28;20193;-64
2021/11/05 09:27:10;;;;;;;1.40;1.30;;;9.10;99.90;;;;;;5035172;28;20162;-65
2021/11/05 09:29:36;;;;;;;2.28;2.17;;;9.30;99.90;;;;;;5035606;28;20178;-66
2021/11/05 09:32:02;;;;;;;1.80;1.67;;;9.40;99.90;;;;;;5035598;28;20308;-65
2021/11/05 09:34:31;;;;;;;2.97;2.77;;;9.50;99.90;;;;;;5035787;28;20296;-65
2021/11/05 09:36:59;;;;;;;2.97;2.00;;;9.70;99.90;;;;;;5035206;28;20419;-66
2021/11/05 09:39:25;;;;;;;2.05;1.95;;;9.90;99.90;;;;;;5035406;28;20198;-64
2021/11/05 09:41:50;;;;;;;2.50;2.30;;;10.30;99.90;;;;;;5035444;28;20532;-66
2021/11/05 09:44:16;;;;;;;2.53;1.63;;;10.80;99.90;;;;;;5035444;28;20414;-66
2021/11/05 09:46:52;;;;;;;2.67;2.47;;;11.30;99.90;;;;;;5035093;28;20295;-66
2021/11/05 09:49:19;;;;;;;2.40;2.20;;;11.70;99.90;;;;;;5035206;28;20667;-65
2021/11/05 09:51:45;;;;;;;1.83;1.73;;;11.90;99.90;;;;;;5034515;28;20383;-65
2021/11/05 09:54:12;;;;;;;1.70;1.60;;;12.00;99.90;;;;;;5035108;28;20382;-67
2021/11/05 09:56:38;;;;;;;2.73;2.57;;;12.20;99.90;;;;;;5035019;28;20174;-66
2021/11/05 09:59:04;;;;;;;2.07;1.87;;;12.30;99.90;;;;;;5034838;28;20470;-66
2021/11/05 10:01:29;;;;;;;1.50;1.40;;;12.20;99.90;;;;;;5034917;28;20405;-67
2021/11/05 10:03:55;;;;;;;1.97;1.87;;;12.10;99.90;;;;;;5035017;28;20173;-66
2021/11/05 10:06:23;;;;;;;2.60;2.50;;;12.00;99.90;;;;;;5034819;28;20555;-66
2021/11/05 10:08:53;;;;;;;2.77;2.57;;;11.90;99.90;;;;;;5034794;28;20197;-66
2021/11/05 10:11:36;;;;;;;4.53;4.07;;;11.80;99.90;;;;;;5034707;28;20465;-66
2021/11/05 10:14:03;;;;;;;1.80;1.70;;;11.70;99.90;;;;;;5031619;28;20486;-65
2021/11/05 10:16:30;;;;;;;2.40;2.20;;;11.60;99.90;;;;;;5034313;28;20786;-66
2021/11/05 10:19:01;;;;;;;2.33;2.20;;;11.60;99.90;;;;;;5034494;28;20449;-65
2021/11/05 10:21:38;;;;;;;2.40;2.20;;;11.50;99.90;;;;;;5034851;28;20417;-66
2021/11/05 10:24:13;;;;;;;2.27;2.10;;;11.40;99.90;;;;;;5034647;28;20458;-65
2021/11/05 10:26:39;;;;;;;2.40;2.10;;;11.30;99.90;;;;;;5032967;28;20479;-65
2021/11/05 10:29:06;;;;;;;13.80;2.63;;;11.10;99.90;;;;;;5034377;28;20402;-66
2021/11/05 10:31:35;;;;;;;2.13;2.00;;;11.00;99.90;;;;;;5034910;28;20775;-65
2021/11/05 10:34:02;;;;;;;4.67;2.33;;;10.70;99.90;;;;;;5034279;28;20421;-66
2021/11/05 10:36:30;;;;;;;2.67;2.47;;;10.60;99.90;;;;;;5034170;28;20376;-65
2021/11/05 10:39:01;;;;;;;2.40;2.10;;;10.60;99.90;;;;;;5032650;28;20211;-65
2021/11/05 10:41:29;;;;;;;2.60;2.40;;;10.50;99.90;;;;;;5016842;28;20421;-65
2021/11/05 10:43:57;;;;;;;3.03;2.73;;;10.50;99.90;;;;;;5034240;28;20405;-65
2021/11/05 10:46:35;;;;;;;5.57;3.15;;;10.50;99.90;;;;;;5033841;28;20820;-65
2021/11/05 10:49:25;;;;;;;3.10;2.40;;;10.70;99.90;;;;;;5034164;28;20203;-66
2021/11/05 10:51:51;;;;;;;3.60;3.30;;;10.80;99.90;;;;;;5033930;28;20395;-65
2021/11/05 10:54:17;;;;;;;3.27;2.97;;;10.90;99.90;;;;;;5034046;28;20935;-65
2021/11/05 10:56:45;;;;;;;2.80;2.50;;;11.10;99.90;;;;;;5033746;28;20393;-65
2021/11/05 10:59:11;;;;;;;6.90;3.07;;;11.30;99.90;;;;;;5033879;28;20473;-67
2021/11/05 11:01:42;;;;;;;2.60;2.30;;;11.50;99.90;;;;;;5033727;28;20411;-66
2021/11/05 11:04:13;;;;;;;2.60;2.37;;;11.60;99.90;;;;;;5033908;28;20385;-66
2021/11/05 11:06:47;;;;;;;2.87;2.67;;;11.70;99.90;;;;;;5033386;28;20416;-65
2021/11/05 11:09:15;;;;;;;2.60;2.40;;;11.70;99.90;;;;;;5033438;28;20552;-66
2021/11/05 11:11:49;;;;;;;2.20;2.10;;;11.80;99.90;;;;;;5033715;28;20394;-66
2021/11/05 11:14:29;;;;;;;3.30;3.10;;;11.80;99.90;;;;;;5033833;28;20428;-66
2021/11/05 11:16:55;;;;;;;3.17;2.97;;;11.80;99.90;;;;;;5031805;28;20418;-66
2021/11/05 11:19:23;;;;;;;3.40;3.10;;;11.80;99.90;;;;;;5033396;28;20466;-67
2021/11/05 11:21:56;;;;;;;3.13;2.90;;;12.10;99.90;;;;;;5032182;28;20736;-66
2021/11/05 11:24:25;;;;;;;2.93;2.43;;;12.10;99.90;;;;;;5033521;28;20423;-65
2021/11/05 11:26:52;;;;;;;2.70;2.50;;;12.40;99.90;;;;;;5033373;28;20391;-66
2021/11/05 11:29:22;;;;;;;3.13;2.43;;;12.70;99.90;;;;;;5033499;28;20432;-66
2021/11/05 11:31:49;;;;;;;2.70;2.53;;;13.00;99.90;;;;;;5033771;28;20383;-67
2021/11/05 11:34:16;;;;;;;3.43;3.13;;;13.20;99.90;;;;;;5032156;28;20435;-66
2021/11/05 11:36:47;;;;;;;2.30;2.10;;;13.20;99.90;;;;;;5033178;28;20899;-66
2021/11/05 11:39:17;;;;;;;3.10;2.90;;;13.00;99.90;;;;;;5033081;28;21047;-66
2021/11/05 11:41:43;;;;;;;3.20;2.77;;;12.70;99.90;;;;;;5033191;28;20431;-66
2021/11/05 11:44:12;;;;;;;2.53;2.33;;;12.30;99.90;;;;;;5033492;28;20923;-66
2021/11/05 11:47:08;;;;;;;3.17;2.97;;;12.20;99.90;;;;;;5031516;28;20883;-66
2021/11/05 11:49:39;;;;;;;3.20;2.73;;;12.00;99.90;;;;;;5033277;28;20807;-65
2021/11/05 11:52:09;;;;;;;2.53;2.33;;;11.80;99.90;;;;;;5033209;28;20422;-65
2021/11/05 11:54:37;;;;;;;2.77;2.57;;;11.70;99.90;;;;;;5032943;28;20390;-65
2021/11/05 11:57:17;;;;;;;2.80;2.57;;;11.60;99.90;;;;;;5032653;28;20419;-66
2021/11/05 11:59:46;;;;;;;3.00;2.73;;;11.70;99.90;;;;;;5033042;28;20433;-66
2021/11/05 12:02:34;;;;;;;4.07;3.40;;;11.90;99.90;;;;;;5032955;28;20819;-66
2021/11/05 12:05:02;;;;;;;3.50;2.87;;;12.00;99.90;;;;;;5033173;28;20790;-67
2021/11/05 12:07:28;;;;;;;3.10;2.80;;;11.90;99.90;;;;;;5032564;28;20436;-65
2021/11/05 12:09:53;;;;;;;2.87;2.67;;;11.80;99.90;;;;;;5033126;28;20407;-65
2021/11/05 12:12:22;;;;;;;4.00;3.23;;;11.80;99.90;;;;;;5033030;28;20594;-65
2021/11/05 12:17:27;;;;;;;3.57;3.20;;;11.50;99.90;;;;;;5036526;28;20712;-70
2021/11/05 12:19:59;;;;;;;3.40;3.10;;;11.50;99.90;;;;;;5036908;28;20447;-66
2021/11/05 12:22:25;;;;;;;2.93;2.70;;;11.50;99.90;;;;;;5036686;28;20399;-66
2021/11/05 12:24:51;;;;;;;3.57;3.37;;;11.60;99.90;;;;;;5019256;28;20396;-65
2021/11/05 12:27:31;;;;;;;4.77;3.63;;;11.60;99.90;;;;;;5018591;28;20385;-64
2021/11/05 12:30:04;;;;;;;3.30;3.00;;;11.60;99.90;;;;;;5036666;28;20384;-65
2021/11/05 12:32:32;;;;;;;5.03;3.30;;;11.50;99.90;;;;;;5036713;28;20439;-65
2021/11/05 12:35:05;;;;;;;5.57;3.60;;;11.50;99.90;;;;;;5036722;28;20869;-64
2021/11/05 12:37:37;;;;;;;3.60;3.30;;;11.50;99.90;;;;;;5036002;28;20463;-65
2021/11/05 12:40:21;;;;;;;5.33;3.43;;;11.50;99.90;;;;;;5036404;28;20401;-65
2021/11/05 12:42:52;;;;;;;6.53;3.30;;;11.40;99.90;;;;;;5036592;28;20489;-65
2021/11/05 12:45:19;;;;;;;3.63;3.20;;;11.40;99.90;;;;;;5036450;28;20395;-66
2021/11/05 12:48:00;;;;;;;3.97;3.60;;;11.40;99.90;;;;;;5018479;28;20427;-65
2021/11/05 12:50:31;;;;;;;3.93;3.47;;;11.40;99.90;;;;;;5036687;28;20415;-66
2021/11/05 12:53:00;;;;;;;5.30;4.57;;;11.40;99.90;;;;;;5036232;28;20428;-66
2021/11/05 12:55:31;;;;;;;4.53;3.23;;;11.50;99.90;;;;;;5036360;28;20420;-64
2021/11/05 12:57:59;;;;;;;7.53;3.90;;;11.60;99.90;;;;;;5035641;28;20469;-65